sensor_id;sensor_type;location;lat;lon;timestamp;pressure;altitude;pressure_sealevel;temperature;humidity
18323;BME280;9287;49.456;11.064;2023-12-20T00:02:18;98074.44;;;5.85;100.00
18323;BME280;9287;49.456;11.064;2023-12-20T00:04:46;98074.91;;;5.87;100.00
18323;BME280;9287;49.456;11.064;2023-12-20T00:07:16;98065.34;;;5.81;100.00
18323;BME280;9287;49.456;11.064;2023-12-20T00:09:45;98073.31;;;5.86;100.00
18323;BME280;9287;49.456;11.064;2023-12-20T00:12:13;98075.53;;;5.84;100.00
18323;BME280;9287;49.456;11.064;2023-12-20T00:14:49;98068.53;;;5.83;100.00
18323;BME280;9287;49.456;11.064;2023-12-20T00:17:16;98072.34;;;5.82;100.00
18323;BME280;9287;49.456;11.064;2023-12-20T00:19:46;98067.72;;;5.82;100.00
18323;BME280;9287;49.456;11.064;2023-12-20T00:22:16;98063.75;;;5.80;100.00
18323;BME280;9287;49.456;11.064;2023-12-20T00:24:47;98063.41;;;5.73;100.00
18323;BME280;9287;49.456;11.064;2023-12-20T00:27:15;98052.56;;;5.73;100.00
18323;BME280;9287;49.456;11.064;2023-12-20T00:29:43;98052.13;;;5.71;100.00
18323;BME280;9287;49.456;11.064;2023-12-20T00:32:15;98047.97;;;5.65;100.00
18323;BME280;9287;49.456;11.064;2023-12-20T00:34:43;98043.66;;;5.64;100.00
18323;BME280;9287;49.456;11.064;2023-12-20T00:37:12;98038.25;;;5.64;100.00
18323;BME280;9287;49.456;11.064;2023-12-20T00:39:41;98033.31;;;5.66;100.00
18323;BME280;9287;49.456;11.064;2023-12-20T00:42:11;98030.59;;;5.66;100.00
18323;BME280;9287;49.456;11.064;2023-12-20T00:44:40;98031.72;;;5.65;100.00
18323;BME280;9287;49.456;11.064;2023-12-20T00:47:10;98035.06;;;5.62;100.00
18323;BME280;9287;49.456;11.064;2023-12-20T00:49:39;98024.22;;;5.62;100.00
18323;BME280;9287;49.456;11.064;2023-12-20T00:52:10;98028.03;;;5.60;100.00
18323;BME280;9287;49.456;11.064;2023-12-20T00:54:41;98036.00;;;5.66;100.00
18323;BME280;9287;49.456;11.064;2023-12-20T00:57:10;98031.56;;;5.70;100.00
18323;BME280;9287;49.456;11.064;2023-12-20T00:59:38;98032.81;;;5.64;100.00
18323;BME280;9287;49.456;11.064;2023-12-20T01:02:06;98032.03;;;5.63;100.00
18323;BME280;9287;49.456;11.064;2023-12-20T01:04:35;98031.41;;;5.66;100.00
18323;BME280;9287;49.456;11.064;2023-12-20T01:07:04;98026.44;;;5.59;100.00
18323;BME280;9287;49.456;11.064;2023-12-20T01:09:32;98029.16;;;5.59;100.00
18323;BME280;9287;49.456;11.064;2023-12-20T01:12:02;98024.69;;;5.64;100.00
18323;BME280;9287;49.456;11.064;2023-12-20T01:14:30;98019.13;;;5.60;100.00
18323;BME280;9287;49.456;11.064;2023-12-20T01:17:02;98027.72;;;5.62;100.00
18323;BME280;9287;49.456;11.064;2023-12-20T01:19:30;98022.00;;;5.64;100.00
18323;BME280;9287;49.456;11.064;2023-12-20T01:21:58;98018.97;;;5.65;100.00
18323;BME280;9287;49.456;11.064;2023-12-20T01:24:27;98018.78;;;5.62;100.00
18323;BME280;9287;49.456;11.064;2023-12-20T01:26:55;98017.19;;;5.60;100.00
18323;BME280;9287;49.456;11.064;2023-12-20T01:29:27;98003.66;;;5.60;100.00
18323;BME280;9287;49.456;11.064;2023-12-20T01:31:55;98009.22;;;5.55;100.00
18323;BME280;9287;49.456;11.064;2023-12-20T01:34:23;97994.56;;;5.56;100.00
18323;BME280;9287;49.456;11.064;2023-12-20T01:36:52;97996.03;;;5.54;100.00
18323;BME280;9287;49.456;11.064;2023-12-20T01:39:20;98004.47;;;5.52;100.00
18323;BME280;9287;49.456;11.064;2023-12-20T01:41:55;97999.69;;;5.49;100.00
18323;BME280;9287;49.456;11.064;2023-12-20T01:44:24;97995.88;;;5.50;100.00
18323;BME280;9287;49.456;11.064;2023-12-20T01:46:56;97997.13;;;5.44;100.00
18323;BME280;9287;49.456;11.064;2023-12-20T01:49:26;97992.66;;;5.48;100.00
18323;BME280;9287;49.456;11.064;2023-12-20T01:51:54;97986.63;;;5.51;100.00
18323;BME280;9287;49.456;11.064;2023-12-20T01:54:23;97989.47;;;5.46;100.00
18323;BME280;9287;49.456;11.064;2023-12-20T01:56:53;97996.50;;;5.47;100.00
18323;BME280;9287;49.456;11.064;2023-12-20T01:59:26;98001.75;;;5.52;100.00
18323;BME280;9287;49.456;11.064;2023-12-20T02:01:57;97994.09;;;5.46;100.00
18323;BME280;9287;49.456;11.064;2023-12-20T02:04:27;97993.94;;;5.42;100.00
18323;BME280;9287;49.456;11.064;2023-12-20T02:06:58;97987.56;;;5.38;100.00
18323;BME280;9287;49.456;11.064;2023-12-20T02:09:27;97999.34;;;5.34;100.00
18323;BME280;9287;49.456;11.064;2023-12-20T02:11:57;97996.00;;;5.28;100.00
18323;BME280;9287;49.456;11.064;2023-12-20T02:14:40;97990.59;;;5.28;100.00
18323;BME280;9287;49.456;11.064;2023-12-20T02:17:10;97984.38;;;5.19;100.00
18323;BME280;9287;49.456;11.064;2023-12-20T02:19:38;97989.44;;;5.12;100.00
18323;BME280;9287;49.456;11.064;2023-12-20T02:22:10;97998.03;;;5.05;100.00
18323;BME280;9287;49.456;11.064;2023-12-20T02:24:41;97991.66;;;4.93;100.00
18323;BME280;9287;49.456;11.064;2023-12-20T02:27:09;97980.81;;;4.93;100.00
18323;BME280;9287;49.456;11.064;2023-12-20T02:29:37;97982.25;;;4.90;100.00
18323;BME280;9287;49.456;11.064;2023-12-20T02:32:05;97977.63;;;4.90;100.00
18323;BME280;9287;49.456;11.064;2023-12-20T02:34:33;97978.25;;;4.87;100.00
18323;BME280;9287;49.456;11.064;2023-12-20T02:37:02;97985.56;;;4.78;100.00
18323;BME280;9287;49.456;11.064;2023-12-20T02:39:31;97972.81;;;4.70;100.00
18323;BME280;9287;49.456;11.064;2023-12-20T02:42:00;97983.91;;;4.60;100.00
18323;BME280;9287;49.456;11.064;2023-12-20T02:44:29;97984.41;;;4.62;100.00
18323;BME280;9287;49.456;11.064;2023-12-20T02:46:59;97984.84;;;4.55;100.00
18323;BME280;9287;49.456;11.064;2023-12-20T02:49:26;97982.13;;;4.55;100.00
18323;BME280;9287;49.456;11.064;2023-12-20T02:51:56;97999.78;;;4.53;100.00
18323;BME280;9287;49.456;11.064;2023-12-20T02:54:24;97993.75;;;4.56;100.00
18323;BME280;9287;49.456;11.064;2023-12-20T02:56:58;97992.16;;;4.55;100.00
18323;BME280;9287;49.456;11.064;2023-12-20T02:59:26;97999.78;;;4.53;100.00
18323;BME280;9287;49.456;11.064;2023-12-20T03:01:55;97999.97;;;4.57;100.00
18323;BME280;9287;49.456;11.064;2023-12-20T03:04:24;98000.75;;;4.57;100.00
18323;BME280;9287;49.456;11.064;2023-12-20T03:06:52;97991.66;;;4.53;100.00
18323;BME280;9287;49.456;11.064;2023-12-20T03:09:21;97994.84;;;4.46;100.00
18323;BME280;9287;49.456;11.064;2023-12-20T03:11:52;97984.47;;;4.40;100.00
18323;BME280;9287;49.456;11.064;2023-12-20T03:14:21;97981.28;;;4.38;100.00
18323;BME280;9287;49.456;11.064;2023-12-20T03:16:50;97983.50;;;4.36;100.00
18323;BME280;9287;49.456;11.064;2023-12-20T03:19:18;97982.53;;;4.32;100.00
18323;BME280;9287;49.456;11.064;2023-12-20T03:21:47;97991.28;;;4.29;100.00
18323;BME280;9287;49.456;11.064;2023-12-20T03:24:14;97983.16;;;4.29;100.00
18323;BME280;9287;49.456;11.064;2023-12-20T03:26:42;97987.94;;;4.32;100.00
18323;BME280;9287;49.456;11.064;2023-12-20T03:29:12;97988.41;;;4.34;100.00
18323;BME280;9287;49.456;11.064;2023-12-20T03:31:42;97993.69;;;4.39;100.00
18323;BME280;9287;49.456;11.064;2023-12-20T03:34:12;98001.31;;;4.37;100.00
18323;BME280;9287;49.456;11.064;2023-12-20T03:36:41;97995.78;;;4.42;100.00
18323;BME280;9287;49.456;11.064;2023-12-20T03:39:11;98000.69;;;4.40;100.00
18323;BME280;9287;49.456;11.064;2023-12-20T03:41:39;97995.28;;;4.40;100.00
18323;BME280;9287;49.456;11.064;2023-12-20T03:44:07;97993.06;;;4.42;100.00
18323;BME280;9287;49.456;11.064;2023-12-20T03:46:37;97996.88;;;4.41;100.00
18323;BME280;9287;49.456;11.064;2023-12-20T03:49:09;98002.78;;;4.43;100.00
18323;BME280;9287;49.456;11.064;2023-12-20T03:51:39;97999.28;;;4.42;100.00
18323;BME280;9287;49.456;11.064;2023-12-20T03:54:09;97999.09;;;4.39;100.00
18323;BME280;9287;49.456;11.064;2023-12-20T03:56:36;98000.69;;;4.40;100.00
18323;BME280;9287;49.456;11.064;2023-12-20T03:59:05;97997.16;;;4.31;100.00
18323;BME280;9287;49.456;11.064;2023-12-20T04:01:32;97999.38;;;4.29;100.00
18323;BME280;9287;49.456;11.064;2023-12-20T04:04:01;97998.13;;;4.35;100.00
18323;BME280;9287;49.456;11.064;2023-12-20T04:06:34;98008.94;;;4.35;100.00
18323;BME280;9287;49.456;11.064;2023-12-20T04:09:03;97996.06;;;4.32;100.00
18323;BME280;9287;49.456;11.064;2023-12-20T04:11:31;98004.16;;;4.32;100.00
18323;BME280;9287;49.456;11.064;2023-12-20T04:14:01;97999.72;;;4.36;100.00
18323;BME280;9287;49.456;11.064;2023-12-20T04:16:30;97997.16;;;4.31;100.00
18323;BME280;9287;49.456;11.064;2023-12-20T04:18:57;98001.47;;;4.32;100.00
18323;BME280;9287;49.456;11.064;2023-12-20T04:21:27;97999.72;;;4.36;100.00
18323;BME280;9287;49.456;11.064;2023-12-20T04:23:56;97997.50;;;4.38;100.00
18323;BME280;9287;49.456;11.064;2023-12-20T04:26:24;98000.81;;;4.35;100.00
18323;BME280;9287;49.456;11.064;2023-12-20T04:28:54;98005.75;;;4.33;100.00
18323;BME280;9287;49.456;11.064;2023-12-20T04:31:24;97999.72;;;4.36;100.00
18323;BME280;9287;49.456;11.064;2023-12-20T04:33:53;97993.34;;;4.32;100.00
18323;BME280;9287;49.456;11.064;2023-12-20T04:36:21;97993.34;;;4.32;100.00
18323;BME280;9287;49.456;11.064;2023-12-20T04:38:49;97996.69;;;4.29;100.00
18323;BME280;9287;49.456;11.064;2023-12-20T04:41:19;97993.00;;;4.25;100.00
18323;BME280;9287;49.456;11.064;2023-12-20T04:43:48;97993.00;;;4.25;100.00
18323;BME280;9287;49.456;11.064;2023-12-20T04:46:17;98003.53;;;4.35;100.00
18323;BME280;9287;49.456;11.064;2023-12-20T04:48:46;98001.47;;;4.32;100.00
18323;BME280;9287;49.456;11.064;2023-12-20T04:51:14;98004.16;;;4.32;100.00
18323;BME280;9287;49.456;11.064;2023-12-20T04:53:42;97997.97;;;4.31;100.00
18323;BME280;9287;49.456;11.064;2023-12-20T04:56:10;98006.88;;;4.32;100.00
18323;BME280;9287;49.456;11.064;2023-12-20T04:58:42;97998.91;;;4.35;100.00
18323;BME280;9287;49.456;11.064;2023-12-20T05:01:10;97998.13;;;4.35;100.00
18323;BME280;9287;49.456;11.064;2023-12-20T05:03:41;98009.56;;;4.32;100.00
18323;BME280;9287;49.456;11.064;2023-12-20T05:06:25;98009.38;;;4.28;100.00
18323;BME280;9287;49.456;11.064;2023-12-20T05:09:01;98015.59;;;4.29;100.00
18323;BME280;9287;49.456;11.064;2023-12-20T05:11:40;98012.41;;;4.27;100.00
18323;BME280;9287;49.456;11.064;2023-12-20T05:14:09;98023.81;;;4.24;100.00
18323;BME280;9287;49.456;11.064;2023-12-20T05:16:37;98026.03;;;4.22;100.00
18323;BME280;9287;49.456;11.064;2023-12-20T05:19:07;98036.22;;;4.25;100.00
18323;BME280;9287;49.456;11.064;2023-12-20T05:21:36;98045.44;;;4.24;100.00
18323;BME280;9287;49.456;11.064;2023-12-20T05:24:04;98036.66;;;4.18;100.00
18323;BME280;9287;49.456;11.064;2023-12-20T05:26:34;98037.47;;;4.18;100.00
18323;BME280;9287;49.456;11.064;2023-12-20T05:29:04;98039.66;;;4.16;100.00
18323;BME280;9287;49.456;11.064;2023-12-20T05:31:47;98042.88;;;4.18;100.00
18323;BME280;9287;49.456;11.064;2023-12-20T05:34:18;98047.78;;;4.16;100.00
18323;BME280;9287;49.456;11.064;2023-12-20T05:36:48;98048.13;;;4.15;100.00
18323;BME280;9287;49.456;11.064;2023-12-20T05:39:18;98048.28;;;4.18;100.00
18323;BME280;9287;49.456;11.064;2023-12-20T05:41:46;98043.84;;;4.23;100.00
18323;BME280;9287;49.456;11.064;2023-12-20T05:44:15;98057.06;;;4.24;100.00
18323;BME280;9287;49.456;11.064;2023-12-20T05:46:48;98048.16;;;4.24;100.00
18323;BME280;9287;49.456;11.064;2023-12-20T05:49:24;98053.88;;;4.22;100.00
18323;BME280;9287;49.456;11.064;2023-12-20T05:51:59;98053.94;;;4.31;100.00
18323;BME280;9287;49.456;11.064;2023-12-20T05:54:31;98051.22;;;4.31;100.00
18323;BME280;9287;49.456;11.064;2023-12-20T05:57:01;98062.53;;;4.33;100.00
18323;BME280;9287;49.456;11.064;2023-12-20T05:59:31;98071.41;;;4.33;100.00
18323;BME280;9287;49.456;11.064;2023-12-20T06:02:00;98066.81;;;4.34;100.00
18323;BME280;9287;49.456;11.064;2023-12-20T06:04:28;98074.44;;;4.32;100.00
18323;BME280;9287;49.456;11.064;2023-12-20T06:06:56;98071.25;;;4.30;100.00
18323;BME280;9287;49.456;11.064;2023-12-20T06:09:27;98065.03;;;4.29;100.00
18323;BME280;9287;49.456;11.064;2023-12-20T06:11:57;98075.06;;;4.29;100.00
18323;BME280;9287;49.456;11.064;2023-12-20T06:14:26;98065.66;;;4.26;100.00
18323;BME280;9287;49.456;11.064;2023-12-20T06:17:03;98075.19;;;4.24;100.00
18323;BME280;9287;49.456;11.064;2023-12-20T06:19:31;98076.41;;;4.17;100.00
18323;BME280;9287;49.456;11.064;2023-12-20T06:21:59;98087.47;;;4.07;100.00
18323;BME280;9287;49.456;11.064;2023-12-20T06:24:30;98098.97;;;4.13;100.00
18323;BME280;9287;49.456;11.064;2023-12-20T06:27:00;98101.19;;;4.11;100.00
18323;BME280;9287;49.456;11.064;2023-12-20T06:29:28;98111.41;;;4.00;100.00
18323;BME280;9287;49.456;11.064;2023-12-20T06:31:57;98110.81;;;4.03;100.00
18323;BME280;9287;49.456;11.064;2023-12-20T06:34:27;98105.22;;;4.00;100.00
18323;BME280;9287;49.456;11.064;2023-12-20T06:36:55;98116.81;;;4.00;100.00
18323;BME280;9287;49.456;11.064;2023-12-20T06:39:23;98110.00;;;4.03;100.00
18323;BME280;9287;49.456;11.064;2023-12-20T06:41:50;98119.41;;;4.05;100.00
18323;BME280;9287;49.456;11.064;2023-12-20T06:44:18;98124.19;;;4.08;100.00
18323;BME280;9287;49.456;11.064;2023-12-20T06:46:46;98122.59;;;4.07;100.00
18323;BME280;9287;49.456;11.064;2023-12-20T06:49:14;98123.09;;;4.09;100.00
18323;BME280;9287;49.456;11.064;2023-12-20T06:51:43;98120.91;;;4.11;100.00
18323;BME280;9287;49.456;11.064;2023-12-20T06:54:11;98122.59;;;4.07;100.00
18323;BME280;9287;49.456;11.064;2023-12-20T06:56:39;98123.59;;;4.11;100.00
18323;BME280;9287;49.456;11.064;2023-12-20T06:59:07;98131.22;;;4.09;100.00
18323;BME280;9287;49.456;11.064;2023-12-20T07:01:36;98133.59;;;4.11;100.00
18323;BME280;9287;49.456;11.064;2023-12-20T07:04:04;98142.56;;;4.20;100.00
18323;BME280;9287;49.456;11.064;2023-12-20T07:06:33;98149.16;;;4.28;100.00
18323;BME280;9287;49.456;11.064;2023-12-20T07:09:09;98159.34;;;4.31;100.00
18323;BME280;9287;49.456;11.064;2023-12-20T07:11:40;98169.53;;;4.34;100.00
18323;BME280;9287;49.456;11.064;2023-12-20T07:14:09;98169.06;;;4.32;100.00
18323;BME280;9287;49.456;11.064;2023-12-20T07:16:39;98171.13;;;4.35;100.00
18323;BME280;9287;49.456;11.064;2023-12-20T07:19:08;98178.13;;;4.36;100.00
18323;BME280;9287;49.456;11.064;2023-12-20T07:21:39;98180.72;;;4.41;100.00
18323;BME280;9287;49.456;11.064;2023-12-20T07:24:09;98182.94;;;4.39;100.00
18323;BME280;9287;49.456;11.064;2023-12-20T07:26:38;98181.34;;;4.38;100.00
18323;BME280;9287;49.456;11.064;2023-12-20T07:29:07;98179.13;;;4.40;100.00
18323;BME280;9287;49.456;11.064;2023-12-20T07:31:35;98187.72;;;4.42;100.00
18323;BME280;9287;49.456;11.064;2023-12-20T07:34:04;98180.34;;;4.34;100.00
18323;BME280;9287;49.456;11.064;2023-12-20T07:36:32;98179.75;;;4.37;100.00
18323;BME280;9287;49.456;11.064;2023-12-20T07:39:01;98183.53;;;4.36;100.00
18323;BME280;9287;49.456;11.064;2023-12-20T07:41:31;98185.75;;;4.34;100.00
18323;BME280;9287;49.456;11.064;2023-12-20T07:43:59;98183.53;;;4.36;100.00
18323;BME280;9287;49.456;11.064;2023-12-20T07:46:27;98194.25;;;4.41;100.00
18323;BME280;9287;49.456;11.064;2023-12-20T07:48:55;98197.94;;;4.45;100.00
18323;BME280;9287;49.456;11.064;2023-12-20T07:51:23;98199.53;;;4.46;100.00
18323;BME280;9287;49.456;11.064;2023-12-20T07:53:52;98197.34;;;4.48;100.00
18323;BME280;9287;49.456;11.064;2023-12-20T07:56:19;98205.31;;;4.53;100.00
18323;BME280;9287;49.456;11.064;2023-12-20T07:58:49;98209.09;;;4.52;100.00
18323;BME280;9287;49.456;11.064;2023-12-20T08:01:19;98209.50;;;4.59;100.00
18323;BME280;9287;49.456;11.064;2023-12-20T08:03:49;98213.31;;;4.58;100.00
18323;BME280;9287;49.456;11.064;2023-12-20T08:06:18;98215.28;;;4.66;100.00
18323;BME280;9287;49.456;11.064;2023-12-20T08:08:46;98211.81;;;4.74;100.00
18323;BME280;9287;49.456;11.064;2023-12-20T08:11:27;98215.03;;;4.76;100.00
18323;BME280;9287;49.456;11.064;2023-12-20T08:13:56;98216.00;;;4.80;100.00
18323;BME280;9287;49.456;11.064;2023-12-20T08:16:24;98206.41;;;4.74;100.00
18323;BME280;9287;49.456;11.064;2023-12-20T08:18:52;98214.53;;;4.74;100.00
18323;BME280;9287;49.456;11.064;2023-12-20T08:21:20;98199.41;;;4.73;100.00
18323;BME280;9287;49.456;11.064;2023-12-20T08:23:49;98207.03;;;4.71;100.00
18323;BME280;9287;49.456;11.064;2023-12-20T08:26:18;98191.78;;;4.75;100.00
18323;BME280;9287;49.456;11.064;2023-12-20T08:28:47;98193.38;;;4.76;100.00
18323;BME280;9287;49.456;11.064;2023-12-20T08:31:18;98204.72;;;4.87;100.00
18323;BME280;9287;49.456;11.064;2023-12-20T08:33:47;98201.09;;;4.92;100.00
18323;BME280;9287;49.456;11.064;2023-12-20T08:36:15;98204.66;;;5.01;100.00
18323;BME280;9287;49.456;11.064;2023-12-20T08:38:44;98191.97;;;5.49;100.00
18323;BME280;9287;49.456;11.064;2023-12-20T08:41:12;98196.53;;;5.40;100.00
18323;BME280;9287;49.456;11.064;2023-12-20T08:43:41;98188.09;;;5.33;100.00
18323;BME280;9287;49.456;11.064;2023-12-20T08:46:09;98189.22;;;5.32;100.00
18323;BME280;9287;49.456;11.064;2023-12-20T08:48:40;98185.03;;;5.26;100.00
18323;BME280;9287;49.456;11.064;2023-12-20T08:51:10;98188.84;;;5.25;100.00
18323;BME280;9287;49.456;11.064;2023-12-20T08:53:37;98185.16;;;5.21;100.00
18323;BME280;9287;49.456;11.064;2023-12-20T08:56:06;98198.69;;;5.21;100.00
18323;BME280;9287;49.456;11.064;2023-12-20T08:58:34;98198.69;;;5.21;100.00
18323;BME280;9287;49.456;11.064;2023-12-20T09:01:03;98191.91;;;5.32;100.00
18323;BME280;9287;49.456;11.064;2023-12-20T09:03:32;98183.69;;;5.46;100.00
18323;BME280;9287;49.456;11.064;2023-12-20T09:06:03;98189.00;;;5.77;100.00
18323;BME280;9287;49.456;11.064;2023-12-20T09:08:34;98187.00;;;5.91;100.00
18323;BME280;9287;49.456;11.064;2023-12-20T09:11:03;98191.31;;;6.44;100.00
18323;BME280;9287;49.456;11.064;2023-12-20T09:13:31;98192.00;;;7.22;100.00
18323;BME280;9287;49.456;11.064;2023-12-20T09:16:02;98195.19;;;7.24;100.00
18323;BME280;9287;49.456;11.064;2023-12-20T09:18:30;98211.38;;;6.94;100.00
18323;BME280;9287;49.456;11.064;2023-12-20T09:21:02;98206.34;;;6.33;100.00
18323;BME280;9287;49.456;11.064;2023-12-20T09:23:30;98208.41;;;6.61;100.00
18323;BME280;9287;49.456;11.064;2023-12-20T09:25:58;98215.53;;;7.47;100.00
18323;BME280;9287;49.456;11.064;2023-12-20T09:28:26;98207.28;;;7.64;100.00
18323;BME280;9287;49.456;11.064;2023-12-20T09:30:55;98209.84;;;7.69;100.00
18323;BME280;9287;49.456;11.064;2023-12-20T09:33:24;98207.59;;;7.72;100.00
18323;BME280;9287;49.456;11.064;2023-12-20T09:35:52;98196.88;;;7.37;100.00
18323;BME280;9287;49.456;11.064;2023-12-20T09:38:23;98205.69;;;7.34;100.00
18323;BME280;9287;49.456;11.064;2023-12-20T09:40:53;98212.06;;;7.38;100.00
18323;BME280;9287;49.456;11.064;2023-12-20T09:43:25;98222.31;;;7.71;100.00
18323;BME280;9287;49.456;11.064;2023-12-20T09:46:00;98215.22;;;8.08;100.00
18323;BME280;9287;49.456;11.064;2023-12-20T09:48:31;98212.03;;;8.68;100.00
18323;BME280;9287;49.456;11.064;2023-12-20T09:51:00;98212.56;;;8.82;100.00
18323;BME280;9287;49.456;11.064;2023-12-20T09:53:35;98212.13;;;9.25;100.00
18323;BME280;9287;49.456;11.064;2023-12-20T09:56:05;98220.00;;;9.51;100.00
18323;BME280;9287;49.456;11.064;2023-12-20T09:58:37;98216.97;;;9.20;100.00
18323;BME280;9287;49.456;11.064;2023-12-20T10:01:06;98211.19;;;8.76;100.00
18323;BME280;9287;49.456;11.064;2023-12-20T10:03:37;98209.78;;;8.28;100.00
18323;BME280;9287;49.456;11.064;2023-12-20T10:06:07;98206.59;;;8.68;100.00
18323;BME280;9287;49.456;11.064;2023-12-20T10:08:39;98206.25;;;9.02;100.00
18323;BME280;9287;49.456;11.064;2023-12-20T10:11:09;98204.31;;;8.58;100.00
18323;BME280;9287;49.456;11.064;2023-12-20T10:13:43;98198.47;;;7.97;100.00
18323;BME280;9287;49.456;11.064;2023-12-20T10:16:13;98208.28;;;7.60;100.00
18323;BME280;9287;49.456;11.064;2023-12-20T10:18:42;98201.16;;;8.26;100.00
18323;BME280;9287;49.456;11.064;2023-12-20T10:21:10;98189.06;;;7.94;100.00
18323;BME280;9287;49.456;11.064;2023-12-20T10:23:39;98199.75;;;7.32;100.00
18323;BME280;9287;49.456;11.064;2023-12-20T10:26:08;98197.25;;;7.27;100.00
18323;BME280;9287;49.456;11.064;2023-12-20T10:28:37;98188.53;;;6.95;100.00
18323;BME280;9287;49.456;11.064;2023-12-20T10:31:08;98193.81;;;7.01;100.00
18323;BME280;9287;49.456;11.064;2023-12-20T10:33:36;98195.25;;;6.98;100.00
18323;BME280;9287;49.456;11.064;2023-12-20T10:36:05;98197.50;;;6.87;100.00
18323;BME280;9287;49.456;11.064;2023-12-20T10:38:34;98192.41;;;6.86;100.00
18323;BME280;9287;49.456;11.064;2023-12-20T10:41:06;98183.63;;;6.80;100.00
18323;BME280;9287;49.456;11.064;2023-12-20T10:43:36;98186.69;;;6.61;100.00
18323;BME280;9287;49.456;11.064;2023-12-20T10:46:06;98187.81;;;6.52;100.00
18323;BME280;9287;49.456;11.064;2023-12-20T10:48:34;98175.06;;;6.44;100.00
18323;BME280;9287;49.456;11.064;2023-12-20T10:51:04;98187.19;;;6.20;100.00
18323;BME280;9287;49.456;11.064;2023-12-20T10:53:33;98177.00;;;6.17;100.00
18323;BME280;9287;49.456;11.064;2023-12-20T10:56:08;98177.00;;;6.17;100.00
18323;BME280;9287;49.456;11.064;2023-12-20T10:58:42;98172.53;;;6.21;100.00
18323;BME280;9287;49.456;11.064;2023-12-20T11:01:12;98163.75;;;6.16;100.00
18323;BME280;9287;49.456;11.064;2023-12-20T11:03:44;98166.13;;;6.17;100.00
18323;BME280;9287;49.456;11.064;2023-12-20T11:06:33;98164.22;;;6.09;100.00
18323;BME280;9287;49.456;11.064;2023-12-20T11:09:10;98161.19;;;6.02;100.00
18323;BME280;9287;49.456;11.064;2023-12-20T11:11:59;98163.09;;;6.10;100.00
18323;BME280;9287;49.456;11.064;2023-12-20T11:14:43;98165.97;;;6.05;100.00
18323;BME280;9287;49.456;11.064;2023-12-20T11:17:14;98158.94;;;6.13;100.00
18323;BME280;9287;49.456;11.064;2023-12-20T11:20:04;98139.66;;;6.14;100.00
18323;BME280;9287;49.456;11.064;2023-12-20T11:22:33;98161.19;;;6.02;100.00
18323;BME280;9287;49.456;11.064;2023-12-20T11:25:08;98151.72;;;5.74;100.00
18323;BME280;9287;49.456;11.064;2023-12-20T11:27:41;98153.25;;;5.57;100.00
18323;BME280;9287;49.456;11.064;2023-12-20T11:30:14;98157.75;;;5.53;100.00
18323;BME280;9287;49.456;11.064;2023-12-20T11:32:45;98154.53;;;5.51;100.00
18323;BME280;9287;49.456;11.064;2023-12-20T11:35:19;98154.56;;;5.60;100.00
18323;BME280;9287;49.456;11.064;2023-12-20T11:37:47;98144.03;;;5.58;100.00
18323;BME280;9287;49.456;11.064;2023-12-20T11:40:17;98134.16;;;5.63;100.00
18323;BME280;9287;49.456;11.064;2023-12-20T11:42:49;98136.72;;;5.68;100.00
18323;BME280;9287;49.456;11.064;2023-12-20T11:45:18;98137.53;;;5.77;100.00
18323;BME280;9287;49.456;11.064;2023-12-20T11:47:50;98134.88;;;5.94;100.00
18323;BME280;9287;49.456;11.064;2023-12-20T11:50:22;98141.59;;;6.05;100.00
18323;BME280;9287;49.456;11.064;2023-12-20T11:52:52;98144.59;;;5.95;100.00
18323;BME280;9287;49.456;11.064;2023-12-20T11:55:21;98149.03;;;5.82;100.00
18323;BME280;9287;49.456;11.064;2023-12-20T11:57:50;98148.84;;;5.79;100.00
18323;BME280;9287;49.456;11.064;2023-12-20T12:00:19;98139.28;;;5.73;100.00
18323;BME280;9287;49.456;11.064;2023-12-20T12:02:57;98138.97;;;5.66;100.00
18323;BME280;9287;49.456;11.064;2023-12-20T12:05:27;98135.09;;;5.58;100.00
18323;BME280;9287;49.456;11.064;2023-12-20T12:07:55;98140.34;;;5.54;100.00
18323;BME280;9287;49.456;11.064;2023-12-20T12:10:23;98137.19;;;5.61;100.00
18323;BME280;9287;49.456;11.064;2023-12-20T12:12:53;98138.97;;;5.66;100.00
18323;BME280;9287;49.456;11.064;2023-12-20T12:15:21;98138.97;;;5.66;100.00
18323;BME280;9287;49.456;11.064;2023-12-20T12:17:55;98139.28;;;5.73;100.00
18323;BME280;9287;49.456;11.064;2023-12-20T12:20:24;98137.03;;;5.75;100.00
18323;BME280;9287;49.456;11.064;2023-12-20T12:22:59;98129.78;;;6.01;100.00
18323;BME280;9287;49.456;11.064;2023-12-20T12:25:29;98136.91;;;6.49;100.00
18323;BME280;9287;49.456;11.064;2023-12-20T12:27:59;98137.09;;;6.26;100.00
18323;BME280;9287;49.456;11.064;2023-12-20T12:30:27;98137.44;;;6.16;100.00
18323;BME280;9287;49.456;11.064;2023-12-20T12:33:04;98140.28;;;6.11;100.00
18323;BME280;9287;49.456;11.064;2023-12-20T12:35:33;98128.97;;;6.01;100.00
18323;BME280;9287;49.456;11.064;2023-12-20T12:38:01;98132.63;;;5.96;100.00
18323;BME280;9287;49.456;11.064;2023-12-20T12:40:34;98125.31;;;6.05;100.00
18323;BME280;9287;49.456;11.064;2023-12-20T12:43:04;98129.44;;;6.11;100.00
18323;BME280;9287;49.456;11.064;2023-12-20T12:45:33;98130.25;;;6.20;100.00
18323;BME280;9287;49.456;11.064;2023-12-20T12:48:01;98126.59;;;6.16;100.00
18323;BME280;9287;49.456;11.064;2023-12-20T12:50:30;98132.00;;;6.16;100.00
18323;BME280;9287;49.456;11.064;2023-12-20T12:52:58;98123.41;;;6.14;100.00
18323;BME280;9287;49.456;11.064;2023-12-20T12:55:26;98123.22;;;6.11;100.00
18323;BME280;9287;49.456;11.064;2023-12-20T12:57:58;98121.47;;;6.23;100.00
18323;BME280;9287;49.456;11.064;2023-12-20T13:00:27;98125.47;;;6.35;100.00
18323;BME280;9287;49.456;11.064;2023-12-20T13:02:55;98124.81;;;6.38;100.00
18323;BME280;9287;49.456;11.064;2023-12-20T13:05:23;98128.63;;;6.28;100.00
18323;BME280;9287;49.456;11.064;2023-12-20T13:07:52;98115.09;;;6.19;100.00
18323;BME280;9287;49.456;11.064;2023-12-20T13:10:20;98121.94;;;6.08;100.00
18323;BME280;9287;49.456;11.064;2023-12-20T13:12:50;98112.53;;;6.14;100.00
18323;BME280;9287;49.456;11.064;2023-12-20T13:15:21;98113.97;;;6.12;100.00